• Join FlightAware (Why Join?)
  • Login
  • US Flag 
05:20AM EDT


 

Airport Tracker/Info


-or-


 

Live Flight TrackerFlight Track Log ✈ AAY860 ✈ 28-Jun-2014 ✈ KPIE - KLEX

Flight Track Log - Related Links

Times and Time Zones

All times are in EDT time to prevent confusion due to time zone crossing. See the AAY860 flight status page for this flight to view local times or setup timezone preferences in your user account.

Time Position Orientation Groundspeed Altitude Reporting Facility
EDT Latitude Longitude Course Direction KTS MPH feet Rate Location/Type
06:24AM 27.9333 -82.6833 360° North 156 180 900  Level Tampa TRACON
06:25AM 27.9667 -82.6833 360° North 187 215 2,600 1,920 Climbing Tampa TRACON
06:26AM 28.0333 -82.6333 34° Northeast 250 288 4,800 2,160 Climbing Tampa TRACON
06:28AM 28.1358 -82.6197 North 274 315 8,500 2,100 Climbing Miami Center
06:33AM 28.6564 -82.6675 356° North 391 450 19,200 1,920 Climbing FlightAware ADS-B (KMCO)
06:34AM 28.7436 -82.6731 356° North 392 451 20,200 1,320 Climbing Miami Center
06:35AM 28.8503 -82.7172 340° North 409 471 21,800 1,440 Climbing Miami Center
06:36AM 28.9544 -82.7719 335° Northwest 412 474 23,200 1,380 Climbing Miami Center
06:37AM 29.0661 -82.8236 338° Northwest 426 490 24,600 1,320 Climbing Miami Center
06:38AM 29.1769 -82.8800 336° Northwest 438 504 25,900 660 Climbing Miami Center
06:39AM 29.2908 -82.9322 338° Northwest 439 505 26,000  Climbing Miami Center
06:40AM 29.4128 -82.9156 North 439 505 26,000 720 Level Miami Center
06:46AM 30.1958 -82.7677 North 472 543 31,400 900 Climbing FlightAware ADS-B (KMCO)
06:47AM 30.2860 -82.7506 North 468 539 32,200 1,320 Climbing FlightAware ADS-B (KMCO)
06:47AM 30.3722 -82.7341 10° North 460 529 33,200 1,140 Climbing FlightAware ADS-B (KMCO)
06:48AM 30.4564 -82.7178 North 462 532 33,800 780 Climbing FlightAware ADS-B (KMCO)
06:52AM 30.9522 -82.6221 10° North 447 514 37,000 600 Climbing FlightAware ADS-B (KMCO)
06:53AM 31.0825 -82.5992 10° North 445 512 37,000  Level Jacksonville Center
06:54AM 31.2161 -82.5744 North 445 512 37,000  Level Jacksonville Center
06:55AM 31.3414 -82.5569 North 440 506 37,000  Level Jacksonville Center
06:57AM 31.5967 -82.6319 346° North 440 506 37,000  Level Atlanta Center
06:58AM 31.7181 -82.6619 348° North 445 512 37,000  Level Atlanta Center
06:59AM 31.8394 -82.6942 347° North 450 518 37,000  Level Atlanta Center
07:00AM 31.9650 -82.7267 348° North 450 518 37,000  Level Atlanta Center
07:01AM 32.0886 -82.7617 347° North 450 518 37,000  Level Atlanta Center
07:02AM 32.2119 -82.7942 347° North 450 518 37,000  Level Atlanta Center
07:03AM 32.3314 -82.8294 346° North 450 518 37,000  Level Atlanta Center
07:04AM 32.4547 -82.8622 347° North 450 518 37,000  Level Atlanta Center
07:05AM 32.5761 -82.8950 347° North 450 518 37,000  Level Atlanta Center
07:06AM 32.6975 -82.9281 347° North 445 512 37,000  Level Atlanta Center
07:07AM 32.8189 -82.9636 346° North 450 518 37,000  Level Atlanta Center
07:08AM 32.9403 -82.9992 346° North 450 518 37,000  Level Atlanta Center
07:09AM 33.0658 -83.0300 348° North 450 518 37,000  Level Atlanta Center
07:10AM 33.1850 -83.0633 347° North 450 518 37,000  Level Atlanta Center
07:11AM 33.3083 -83.0967 347° North 445 512 37,000  Level Atlanta Center
07:12AM 33.4297 -83.1328 346° North 445 512 37,000  Level Atlanta Center
07:13AM 33.5531 -83.1639 348° North 445 512 37,000  Level Atlanta Center
07:19AM 34.2973 -83.3743 346° North 443 510 37,000  Level FlightAware ADS-B (KDZJ)
07:20AM 34.3802 -83.3981 346° North 443 510 37,100 60 Climbing FlightAware ADS-B (KDZJ)
07:21AM 34.4654 -83.4225 347° North 449 517 37,100 -120 Level FlightAware ADS-B (KDZJ)
07:21AM 34.5336 -83.4421 347° North 450 518 37,000 -120 Descending FlightAware ADS-B (KDZJ)
07:22AM 34.6279 -83.4691 347° North 450 518 37,000  Level FlightAware ADS-B (KDZJ)
07:23AM 34.7402 -83.5015 347° North 450 518 37,000  Level FlightAware ADS-B (KDZJ)
07:24AM 34.8267 -83.5263 346° North 445 512 37,000 -240 Level FlightAware ADS-B (KDZJ)
07:24AM 34.9102 -83.5506 346° North 446 513 36,700 -720 Descending FlightAware ADS-B (KDZJ)
07:25AM 34.9880 -83.5732 346° North 447 514 36,100 -540 Descending FlightAware ADS-B (KDZJ)
07:26AM 35.0787 -83.5995 347° North 462 532 36,000 -120 Descending FlightAware ADS-B (KDZJ)
07:26AM 35.1611 -83.6235 347° North 459 528 36,000  Level FlightAware ADS-B (KDZJ)
07:27AM 35.2433 -83.6474 346° North 447 514 36,000  Level FlightAware ADS-B (KDZJ)
07:28AM 35.3250 -83.6714 346° North 448 516 36,000  Level FlightAware ADS-B (KDZJ)
07:28AM 35.4058 -83.6950 346° North 451 519 36,000  Level FlightAware ADS-B (KDZJ)
07:29AM 35.4826 -83.7176 346° North 450 518 36,000  Level FlightAware ADS-B (KDZJ)
07:29AM 35.4947 -83.7200 346° North 450 518 36,000  Level Atlanta Center
07:30AM 35.6158 -83.7603 345° North 450 518 36,000  Level Atlanta Center
07:31AM 35.7389 -83.7958 347° North 450 518 36,000 -300 Level Atlanta Center
07:32AM 35.8619 -83.8311 347° North 450 518 35,400 -840 Descending Atlanta Center
07:33AM 35.9831 -83.8667 347° North 450 518 34,400 -1,020 Descending Atlanta Center
07:34AM 36.1061 -83.9050 346° North 450 518 33,400 -960 Descending Atlanta Center
07:35AM 36.2278 -83.9389 347° North 457 526 32,500 -1,260 Descending Indianapolis Center
07:36AM 36.3758 -83.9822 347° North 457 526 30,900 -1,860 Descending Indianapolis Center
07:37AM 36.4969 -84.0192 346° North 455 524 28,800 -2,040 Descending Indianapolis Center
07:38AM 36.6092 -84.0544 346° North 447 514 26,800 -1,680 Descending Indianapolis Center
07:39AM 36.7219 -84.0881 347° North 427 491 25,400 -1,620 Descending Indianapolis Center
07:40AM 36.8311 -84.1203 347° North 411 473 23,600 -2,220 Descending Indianapolis Center
07:41AM 36.9403 -84.1544 346° North 406 467 21,000 -2,520 Descending Indianapolis Center
07:43AM 37.0494 -84.1883 346° North 406 467 18,500 -2,220 Descending Indianapolis Center
07:44AM 37.1586 -84.2206 347° North 404 465 16,500 -2,160 Descending Indianapolis Center
07:45AM 37.2631 -84.2533 346° North 392 451 14,200 -2,280 Descending Indianapolis Center
07:46AM 37.3828 -84.2897 346° North 381 438 11,900 -1,860 Descending Indianapolis Center
07:47AM 37.4808 -84.3031 354° North 362 417 10,500 -960 Descending Indianapolis Center
07:48AM 37.5781 -84.3122 356° North 352 405 10,000 -300 Descending Indianapolis Center
07:49AM 37.6742 -84.3214 356° North 349 402 10,000 -780 Level Indianapolis Center
07:50AM 37.7561 -84.3306 355° North 307 353 8,500 -1,860 Descending Indianapolis Center
07:51AM 37.8369 -84.3383 356° North 294 338 6,300 -1,860 Descending Indianapolis Center
07:52AM 37.9178 -84.3450 356° North 292 336 4,800 -1,140 Descending Indianapolis Center
07:53AM 37.9953 -84.3511 356° North 287 330 4,000 -420 Descending Indianapolis Center
07:54AM 38.0711 -84.3572 356° North 269 310 4,000 -360 Level Indianapolis Center
07:55AM 38.0969 -84.4136 300° West 238 274 3,300 -420 Descending Indianapolis Center
07:56AM 38.1136 -84.4806 288° West 208 239 3,200 -240 Descending Indianapolis Center
07:57AM 38.0986 -84.5339 250° West 180 207 2,900 -660 Descending Indianapolis Center
07:58AM 38.0672 -84.5694 222° Southwest 164 189 1,900 -1,020 Descending Indianapolis Center
08:00AM 38.0333 -84.6000 302° West  Level FlightAware Approximate